createdAt,value
2016-11-29T00:00:21.419Z,295
2016-11-29T00:01:21.539Z,295
2016-11-29T00:02:21.671Z,296
2016-11-29T00:03:21.825Z,295
2016-11-29T00:04:21.987Z,295
2016-11-29T00:05:22.100Z,295
2016-11-29T00:06:22.274Z,295
2016-11-29T00:07:22.410Z,295
2016-11-29T00:08:22.527Z,295
2016-11-29T00:09:22.656Z,295
2016-11-29T00:10:22.792Z,295
2016-11-29T00:11:22.898Z,295
2016-11-29T00:12:23.032Z,295
2016-11-29T00:13:23.191Z,296
2016-11-29T00:14:23.329Z,295
2016-11-29T00:15:23.461Z,295
2016-11-29T00:16:23.578Z,295
2016-11-29T00:17:23.658Z,295
2016-11-29T00:18:23.836Z,295
2016-11-29T00:19:23.953Z,295
2016-11-29T00:20:24.039Z,295
2016-11-29T00:21:24.215Z,295
2016-11-29T00:22:24.346Z,295
2016-11-29T00:23:24.489Z,295
2016-11-29T00:24:24.578Z,295
2016-11-29T00:25:24.681Z,295
2016-11-29T00:26:24.801Z,295
2016-11-29T00:27:24.891Z,295
2016-11-29T00:28:25.057Z,295
2016-11-29T00:29:25.244Z,295
2016-11-29T00:30:25.429Z,295
2016-11-29T00:31:25.540Z,295
2016-11-29T00:32:25.677Z,295
2016-11-29T00:33:25.834Z,296
2016-11-29T00:34:25.946Z,295
2016-11-29T00:35:26.150Z,295
2016-11-29T00:36:26.272Z,295
2016-11-29T00:37:26.477Z,296
2016-11-29T00:38:26.731Z,295
2016-11-29T00:39:26.778Z,295
2016-11-29T00:40:26.943Z,295
2016-11-29T00:41:27.121Z,295
2016-11-29T00:42:27.225Z,295
2016-11-29T00:43:27.393Z,295
2016-11-29T00:44:27.528Z,295
2016-11-29T00:45:27.605Z,295
2016-11-29T00:46:27.778Z,295
2016-11-29T00:47:27.884Z,295
2016-11-29T00:48:27.976Z,295
2016-11-29T00:49:28.054Z,295
2016-11-29T00:50:28.207Z,295
2016-11-29T00:51:28.338Z,295
2016-11-29T00:52:28.395Z,295
2016-11-29T00:53:28.516Z,295
2016-11-29T00:54:28.594Z,295
2016-11-29T00:55:28.685Z,295
2016-11-29T00:56:28.834Z,295
2016-11-29T00:57:28.964Z,295
2016-11-29T00:58:29.089Z,295
2016-11-29T00:59:29.240Z,295
2016-11-29T01:00:29.332Z,295
2016-11-29T01:01:29.432Z,295
2016-11-29T01:02:29.543Z,295
2016-11-29T01:03:29.778Z,295
2016-11-29T01:04:29.851Z,295
2016-11-29T01:05:30.007Z,295
2016-11-29T01:06:30.090Z,295
2016-11-29T01:07:30.204Z,295
2016-11-29T01:08:30.377Z,295
2016-11-29T01:09:30.560Z,295
2016-11-29T01:10:30.697Z,295
2016-11-29T01:11:30.941Z,295
2016-11-29T01:12:31.100Z,295
2016-11-29T01:13:31.242Z,295
2016-11-29T01:14:31.439Z,295
2016-11-29T01:15:31.724Z,295
2016-11-29T01:16:31.927Z,295
2016-11-29T01:17:32.085Z,295
2016-11-29T01:18:32.235Z,295
2016-11-29T01:19:32.494Z,295
2016-11-29T01:20:32.558Z,295
2016-11-29T01:21:32.656Z,295
2016-11-29T01:22:32.777Z,295
2016-11-29T01:23:32.984Z,296
2016-11-29T01:24:33.177Z,296
2016-11-29T01:25:33.436Z,295
2016-11-29T01:26:33.576Z,295
2016-11-29T01:27:33.807Z,295
2016-11-29T01:28:34.004Z,295
2016-11-29T01:29:34.212Z,295
2016-11-29T01:30:34.347Z,296
2016-11-29T01:31:34.555Z,295
2016-11-29T01:32:34.652Z,295
2016-11-29T01:33:34.744Z,295
2016-11-29T01:34:34.921Z,295
2016-11-29T01:35:35.101Z,295
2016-11-29T01:36:35.279Z,295
2016-11-29T01:37:35.423Z,295
2016-11-29T01:38:35.592Z,295
2016-11-29T01:39:35.814Z,295
2016-11-29T01:40:35.913Z,295
2016-11-29T01:41:36.064Z,295
2016-11-29T01:42:36.212Z,296
2016-11-29T01:43:36.396Z,295
2016-11-29T01:44:36.562Z,295
2016-11-29T01:45:36.727Z,295
2016-11-29T01:46:37.087Z,295
2016-11-29T01:47:37.184Z,295
2016-11-29T01:48:37.347Z,295
2016-11-29T01:49:37.658Z,295
2016-11-29T01:50:37.751Z,295
2016-11-29T01:51:37.963Z,295
2016-11-29T01:52:38.141Z,295
2016-11-29T01:53:38.205Z,295
2016-11-29T01:54:38.368Z,295
2016-11-29T01:55:38.513Z,295
2016-11-29T01:56:38.707Z,295
2016-11-29T01:57:39.586Z,295
2016-11-29T01:58:39.778Z,295
2016-11-29T01:59:39.847Z,295
2016-11-29T02:00:40.014Z,295
2016-11-29T02:01:40.223Z,295
2016-11-29T02:02:40.472Z,295
2016-11-29T02:03:40.563Z,296
2016-11-29T02:04:40.656Z,295
2016-11-29T02:05:40.884Z,295
2016-11-29T02:06:41.050Z,295
2016-11-29T02:07:41.225Z,295
2016-11-29T02:08:41.364Z,295
2016-11-29T02:09:41.542Z,295
2016-11-29T02:10:41.664Z,295
2016-11-29T02:11:41.886Z,295
2016-11-29T02:12:42.900Z,295
2016-11-29T02:13:42.130Z,295
2016-11-29T02:14:42.955Z,295
2016-11-29T02:15:43.063Z,295
2016-11-29T02:16:43.395Z,295
2016-11-29T02:17:43.574Z,295
2016-11-29T02:18:43.707Z,295
2016-11-29T02:19:43.781Z,295
2016-11-29T02:20:43.861Z,295
2016-11-29T02:21:44.006Z,295
2016-11-29T02:22:44.913Z,295
2016-11-29T02:23:45.078Z,295
2016-11-29T02:24:45.366Z,295
2016-11-29T02:25:45.483Z,295
2016-11-29T02:26:45.541Z,295
2016-11-29T02:27:45.808Z,295
2016-11-29T02:28:45.954Z,295
2016-11-29T02:29:46.202Z,295
2016-11-29T02:30:46.303Z,295
2016-11-29T02:31:46.531Z,295
2016-11-29T02:32:46.646Z,295
2016-11-29T02:33:46.717Z,295
2016-11-29T02:34:46.885Z,295
2016-11-29T02:35:47.065Z,295
2016-11-29T02:36:47.291Z,295
2016-11-29T02:37:47.433Z,295
2016-11-29T02:38:47.598Z,295
2016-11-29T02:39:47.953Z,295
2016-11-29T02:40:48.084Z,295
2016-11-29T02:41:48.216Z,295
2016-11-29T02:42:48.275Z,295
2016-11-29T02:43:48.549Z,295
2016-11-29T02:44:48.691Z,295
2016-11-29T02:45:48.818Z,295
2016-11-29T02:46:48.997Z,295
2016-11-29T02:47:49.222Z,295
2016-11-29T02:48:49.387Z,295
2016-11-29T02:49:49.573Z,295
2016-11-29T02:50:49.757Z,295
2016-11-29T02:51:49.919Z,295
2016-11-29T02:52:50.028Z,295
2016-11-29T02:53:50.156Z,295
2016-11-29T02:54:50.304Z,295
2016-11-29T02:55:50.473Z,295
2016-11-29T02:56:50.606Z,295
2016-11-29T02:57:50.840Z,296
2016-11-29T02:58:50.859Z,295
2016-11-29T02:59:51.032Z,295
2016-11-29T03:00:51.101Z,295
2016-11-29T03:01:51.255Z,295
2016-11-29T03:02:51.301Z,295
2016-11-29T03:03:51.598Z,295
2016-11-29T03:04:51.730Z,295
2016-11-29T03:05:51.876Z,295
2016-11-29T03:06:52.062Z,295
2016-11-29T03:07:52.241Z,295
2016-11-29T03:08:52.357Z,295
2016-11-29T03:09:52.583Z,295
2016-11-29T03:10:52.713Z,295
2016-11-29T03:11:52.846Z,295
2016-11-29T03:12:52.995Z,296
2016-11-29T03:13:53.230Z,295
2016-11-29T03:14:53.386Z,295
2016-11-29T03:15:53.588Z,295
2016-11-29T03:16:53.700Z,295
2016-11-29T03:17:53.953Z,295
2016-11-29T03:18:54.084Z,295
2016-11-29T03:19:54.218Z,295
2016-11-29T03:20:54.387Z,295
2016-11-29T03:21:54.547Z,295
2016-11-29T03:22:54.713Z,295
2016-11-29T03:23:54.845Z,295
2016-11-29T03:24:55.086Z,295
2016-11-29T03:25:55.343Z,295
2016-11-29T03:26:55.482Z,295
2016-11-29T03:27:55.559Z,295
2016-11-29T03:28:55.645Z,295
2016-11-29T03:29:55.816Z,295
2016-11-29T03:30:56.017Z,295
2016-11-29T03:31:56.179Z,295
2016-11-29T03:32:56.274Z,295
2016-11-29T03:33:56.525Z,295
2016-11-29T03:34:56.706Z,295
2016-11-29T03:35:56.890Z,295
2016-11-29T03:36:57.140Z,295
2016-11-29T03:37:57.294Z,295
2016-11-29T03:38:57.383Z,295
2016-11-29T03:39:57.629Z,295
2016-11-29T03:40:57.793Z,295
2016-11-29T03:41:58.076Z,295
2016-11-29T03:42:58.310Z,295
2016-11-29T03:43:58.476Z,295
2016-11-29T03:44:58.686Z,295
2016-11-29T03:45:58.811Z,295
2016-11-29T03:46:59.087Z,296
2016-11-29T03:47:59.356Z,295
2016-11-29T03:48:59.580Z,295
2016-11-29T03:49:59.745Z,295
2016-11-29T03:50:59.794Z,295
2016-11-29T03:51:59.995Z,295
2016-11-29T03:53:00.106Z,295
2016-11-29T03:54:00.210Z,295
2016-11-29T03:55:00.359Z,295
2016-11-29T03:56:00.455Z,295
2016-11-29T03:57:00.642Z,296
2016-11-29T03:58:00.752Z,295
2016-11-29T03:59:00.918Z,295
2016-11-29T04:00:00.992Z,296
2016-11-29T04:01:01.112Z,295
2016-11-29T04:02:01.222Z,295
2016-11-29T04:03:01.587Z,295
2016-11-29T04:04:01.583Z,296
2016-11-29T04:05:01.802Z,295
2016-11-29T04:06:01.997Z,295
2016-11-29T04:07:02.034Z,295
2016-11-29T04:08:02.148Z,295
2016-11-29T04:09:02.363Z,295
2016-11-29T04:10:02.452Z,295
2016-11-29T04:11:02.640Z,295
2016-11-29T04:12:02.876Z,295
2016-11-29T04:13:03.083Z,295
2016-11-29T04:14:03.209Z,296
2016-11-29T04:15:03.266Z,295
2016-11-29T04:16:03.549Z,296
2016-11-29T04:17:03.728Z,295
2016-11-29T04:18:03.808Z,295
2016-11-29T04:19:04.012Z,295
2016-11-29T04:20:04.158Z,295
2016-11-29T04:21:04.287Z,295
2016-11-29T04:22:04.429Z,296
2016-11-29T04:23:04.579Z,296
2016-11-29T04:24:04.695Z,295
2016-11-29T04:25:04.853Z,295
2016-11-29T04:26:05.176Z,295
2016-11-29T04:27:05.206Z,295
2016-11-29T04:28:05.367Z,295
2016-11-29T04:29:05.590Z,295
2016-11-29T04:30:05.694Z,295
2016-11-29T04:31:05.862Z,295
2016-11-29T04:32:06.131Z,295
2016-11-29T04:33:06.170Z,296
2016-11-29T04:34:06.194Z,295
2016-11-29T04:35:06.341Z,296
2016-11-29T04:36:06.435Z,295
2016-11-29T04:37:06.569Z,295
2016-11-29T04:38:06.718Z,295
2016-11-29T04:39:06.935Z,296
2016-11-29T04:40:07.068Z,295
2016-11-29T04:41:07.239Z,295
2016-11-29T04:42:07.369Z,295
2016-11-29T04:43:07.534Z,295
2016-11-29T04:44:07.720Z,295
2016-11-29T04:45:07.860Z,295
2016-11-29T04:46:08.013Z,295
2016-11-29T04:47:08.233Z,295
2016-11-29T04:48:08.331Z,295
2016-11-29T04:49:08.448Z,295
2016-11-29T04:50:08.557Z,295
2016-11-29T04:51:08.733Z,296
2016-11-29T04:52:08.836Z,295
2016-11-29T04:53:08.962Z,295
2016-11-29T04:54:09.051Z,295
2016-11-29T04:55:09.224Z,295
2016-11-29T04:56:09.325Z,295
2016-11-29T04:57:09.441Z,295
2016-11-29T04:58:09.517Z,295
2016-11-29T04:59:09.622Z,295
2016-11-29T05:00:09.774Z,296
2016-11-29T05:01:09.983Z,295
2016-11-29T05:02:10.095Z,296
2016-11-29T05:03:10.253Z,295
2016-11-29T05:04:10.421Z,295
2016-11-29T05:05:10.503Z,296
2016-11-29T05:06:10.671Z,295
2016-11-29T05:07:10.812Z,296
2016-11-29T05:08:10.932Z,295
2016-11-29T05:09:11.109Z,295
2016-11-29T05:10:11.265Z,295
2016-11-29T05:11:11.402Z,295
2016-11-29T05:12:11.550Z,296
2016-11-29T05:13:11.688Z,295
2016-11-29T05:14:11.822Z,295
2016-11-29T05:15:11.987Z,295
2016-11-29T05:16:12.121Z,296
2016-11-29T05:17:12.407Z,295
2016-11-29T05:18:12.484Z,296
2016-11-29T05:19:12.632Z,295
2016-11-29T05:20:12.828Z,296
2016-11-29T05:21:13.004Z,295
2016-11-29T05:22:13.205Z,295
2016-11-29T05:23:13.457Z,295
2016-11-29T05:24:13.672Z,295
2016-11-29T05:25:13.848Z,295
2016-11-29T05:26:14.006Z,295
2016-11-29T05:27:14.159Z,295
2016-11-29T05:28:14.506Z,295
2016-11-29T05:29:14.665Z,295
2016-11-29T05:30:15.065Z,295
2016-11-29T05:31:15.224Z,296
2016-11-29T05:32:15.405Z,295
2016-11-29T05:33:15.539Z,295
2016-11-29T05:34:15.751Z,295
2016-11-29T05:35:15.953Z,295
2016-11-29T05:36:16.126Z,295
2016-11-29T05:37:16.332Z,295
2016-11-29T05:38:16.480Z,295
2016-11-29T05:39:16.760Z,295
2016-11-29T05:40:17.140Z,295
2016-11-29T05:41:17.261Z,296
2016-11-29T05:42:17.530Z,295
2016-11-29T05:43:17.640Z,295
2016-11-29T05:44:17.834Z,295
2016-11-29T05:45:17.882Z,296
2016-11-29T05:46:18.052Z,295
2016-11-29T05:47:18.320Z,296
2016-11-29T05:48:18.459Z,295
2016-11-29T05:49:18.700Z,296
2016-11-29T05:50:18.801Z,295
2016-11-29T05:51:18.956Z,296
2016-11-29T05:52:19.178Z,296
2016-11-29T05:53:19.317Z,296
2016-11-29T05:54:19.532Z,295
2016-11-29T05:55:19.815Z,295
2016-11-29T05:56:20.004Z,295
2016-11-29T05:57:20.255Z,296
2016-11-29T05:58:20.382Z,296
2016-11-29T05:59:20.501Z,295
2016-11-29T06:00:20.674Z,295
2016-11-29T06:01:20.790Z,295
2016-11-29T06:02:20.898Z,295
2016-11-29T06:03:21.046Z,295
2016-11-29T06:04:21.275Z,295
2016-11-29T06:05:21.522Z,295
2016-11-29T06:06:21.822Z,295
2016-11-29T06:07:21.868Z,295
2016-11-29T06:08:21.956Z,295
2016-11-29T06:09:22.179Z,295
2016-11-29T06:10:22.334Z,296
2016-11-29T06:11:22.492Z,295
2016-11-29T06:12:22.687Z,296
2016-11-29T06:13:22.877Z,295
2016-11-29T06:14:23.106Z,295
2016-11-29T06:15:23.258Z,295
2016-11-29T06:16:23.378Z,295
2016-11-29T06:17:23.591Z,295
2016-11-29T06:18:23.659Z,295
2016-11-29T06:19:23.886Z,295
2016-11-29T06:20:24.007Z,295
2016-11-29T06:21:24.245Z,295
2016-11-29T06:22:24.290Z,296
2016-11-29T06:23:24.507Z,296
2016-11-29T06:24:24.707Z,296
2016-11-29T06:25:24.915Z,295
2016-11-29T06:26:25.125Z,295
2016-11-29T06:27:25.334Z,296
2016-11-29T06:28:25.485Z,295
2016-11-29T06:29:25.580Z,295
2016-11-29T06:30:25.816Z,295
2016-11-29T06:31:26.074Z,295
2016-11-29T06:32:26.179Z,295
2016-11-29T06:33:26.458Z,296
2016-11-29T06:34:26.801Z,296
2016-11-29T06:35:26.872Z,295
2016-11-29T06:36:27.117Z,295
2016-11-29T06:37:27.293Z,295
2016-11-29T06:38:27.523Z,296
2016-11-29T06:39:27.569Z,295
2016-11-29T06:40:27.731Z,296
2016-11-29T06:41:27.874Z,295
2016-11-29T06:42:27.998Z,295
2016-11-29T06:43:28.128Z,295
2016-11-29T06:44:28.223Z,296
2016-11-29T06:45:28.315Z,295
2016-11-29T06:46:28.441Z,295
2016-11-29T06:47:28.553Z,296
2016-11-29T06:48:28.625Z,295
2016-11-29T06:49:28.740Z,296
2016-11-29T06:50:28.919Z,295
2016-11-29T06:51:29.111Z,295
2016-11-29T06:52:29.225Z,296
2016-11-29T06:53:29.420Z,295
2016-11-29T06:54:29.610Z,295
2016-11-29T06:55:29.644Z,295
2016-11-29T06:56:29.832Z,295
2016-11-29T06:57:29.860Z,295
2016-11-29T06:58:30.099Z,295
2016-11-29T06:59:30.218Z,295
2016-11-29T07:00:30.314Z,295
2016-11-29T07:01:30.440Z,295
2016-11-29T07:02:31.498Z,296
2016-11-29T07:03:31.637Z,295
2016-11-29T07:04:31.691Z,296
2016-11-29T07:05:31.897Z,296
2016-11-29T07:06:32.036Z,295
2016-11-29T07:07:32.131Z,296
2016-11-29T07:08:32.348Z,295
2016-11-29T07:09:32.529Z,296
2016-11-29T07:10:32.708Z,295
2016-11-29T07:11:32.896Z,295
2016-11-29T07:12:33.060Z,295
2016-11-29T07:13:33.209Z,296
2016-11-29T07:14:33.349Z,295
2016-11-29T07:15:33.563Z,295
2016-11-29T07:16:33.734Z,296
2016-11-29T07:17:33.872Z,296
2016-11-29T07:18:33.999Z,295
2016-11-29T07:19:34.159Z,296
2016-11-29T07:20:34.345Z,295
2016-11-29T07:21:34.560Z,295
2016-11-29T07:22:34.767Z,296
2016-11-29T07:23:34.943Z,295
2016-11-29T07:24:35.075Z,295
2016-11-29T07:25:35.362Z,295
2016-11-29T07:26:35.553Z,296
2016-11-29T07:27:35.665Z,295
2016-11-29T07:28:35.952Z,295
2016-11-29T07:29:35.995Z,296
2016-11-29T07:30:36.226Z,296
2016-11-29T07:31:36.348Z,295
2016-11-29T07:32:36.439Z,295
2016-11-29T07:33:36.630Z,296
2016-11-29T07:34:36.800Z,296
2016-11-29T07:35:37.006Z,296
2016-11-29T07:36:37.172Z,296
2016-11-29T07:37:37.381Z,296
2016-11-29T07:38:37.525Z,296
2016-11-29T07:39:37.684Z,296
2016-11-29T07:40:37.853Z,295
2016-11-29T07:41:37.992Z,296
2016-11-29T07:42:38.147Z,296
2016-11-29T07:43:38.253Z,295
2016-11-29T07:44:38.419Z,296
2016-11-29T07:45:38.562Z,296
2016-11-29T07:46:38.726Z,296
2016-11-29T07:47:38.890Z,296
2016-11-29T07:48:39.078Z,295
2016-11-29T07:49:39.257Z,295
2016-11-29T07:50:39.430Z,295
2016-11-29T07:51:39.758Z,296
2016-11-29T07:52:39.766Z,295
2016-11-29T07:53:39.862Z,296
2016-11-29T07:54:39.970Z,295
2016-11-29T07:55:40.117Z,295
2016-11-29T07:56:40.301Z,295
2016-11-29T07:57:40.444Z,296
2016-11-29T07:58:40.568Z,295
2016-11-29T07:59:40.747Z,296
2016-11-29T08:00:40.917Z,295
2016-11-29T08:01:41.150Z,296
2016-11-29T08:02:41.305Z,295
2016-11-29T08:03:41.427Z,296
2016-11-29T08:04:41.681Z,295
2016-11-29T08:05:41.787Z,296
2016-11-29T08:06:41.960Z,295
2016-11-29T08:07:42.162Z,296
2016-11-29T08:08:42.279Z,296
2016-11-29T08:09:42.451Z,295
2016-11-29T08:10:42.495Z,295
2016-11-29T08:11:42.640Z,295
2016-11-29T08:12:42.800Z,295
2016-11-29T08:13:42.959Z,295
2016-11-29T08:14:43.057Z,295
2016-11-29T08:15:43.133Z,295
2016-11-29T08:16:43.315Z,296
2016-11-29T08:17:43.477Z,296
2016-11-29T08:18:43.760Z,296
2016-11-29T08:19:43.970Z,295
2016-11-29T08:20:44.087Z,295
2016-11-29T08:21:44.215Z,295
2016-11-29T08:22:44.444Z,296
2016-11-29T08:23:44.539Z,295
2016-11-29T08:24:44.688Z,295
2016-11-29T08:25:44.821Z,295
2016-11-29T08:26:44.985Z,295
2016-11-29T08:27:45.112Z,295
2016-11-29T08:28:45.231Z,295
2016-11-29T08:29:45.314Z,295
2016-11-29T08:30:45.429Z,295
2016-11-29T08:31:45.495Z,295
2016-11-29T08:32:45.714Z,295
2016-11-29T08:33:45.822Z,296
2016-11-29T08:34:45.928Z,317
2016-11-29T08:35:46.023Z,398
2016-11-29T08:36:46.216Z,422
2016-11-29T08:37:46.460Z,424
2016-11-29T08:38:46.672Z,419
2016-11-29T08:39:46.788Z,412
2016-11-29T08:40:46.926Z,403
2016-11-29T08:41:47.335Z,393
2016-11-29T08:42:47.688Z,389
2016-11-29T08:43:47.810Z,383
2016-11-29T08:44:48.018Z,376
2016-11-29T08:45:48.162Z,369
2016-11-29T08:46:48.355Z,365
2016-11-29T08:47:48.502Z,362
2016-11-29T08:48:48.731Z,357
2016-11-29T08:49:48.895Z,355
2016-11-29T08:50:48.993Z,351
2016-11-29T08:51:49.131Z,348
2016-11-29T08:52:49.300Z,346
2016-11-29T08:53:49.519Z,347
2016-11-29T08:54:49.707Z,345
2016-11-29T08:55:49.951Z,341
2016-11-29T08:56:50.092Z,341
2016-11-29T08:57:50.500Z,337
2016-11-29T08:58:50.420Z,335
2016-11-29T08:59:50.588Z,332
2016-11-29T09:00:50.769Z,333
2016-11-29T09:01:51.097Z,327
2016-11-29T09:02:51.267Z,329
2016-11-29T09:03:51.816Z,329
2016-11-29T09:04:52.080Z,323
2016-11-29T09:05:52.473Z,317
2016-11-29T09:06:52.643Z,313
2016-11-29T09:07:52.787Z,316
2016-11-29T09:08:52.947Z,310
2016-11-29T09:09:53.188Z,305
2016-11-29T09:10:53.427Z,304
2016-11-29T09:11:53.768Z,305
2016-11-29T09:12:53.791Z,302
2016-11-29T09:13:53.969Z,302
2016-11-29T09:14:54.331Z,303
2016-11-29T09:15:54.596Z,302
2016-11-29T09:16:55.091Z,301
2016-11-29T09:17:55.129Z,310
2016-11-29T09:18:55.351Z,305
2016-11-29T09:19:55.540Z,301
2016-11-29T09:20:55.738Z,300
2016-11-29T09:21:55.872Z,296
2016-11-29T09:22:56.164Z,295
2016-11-29T09:23:56.344Z,295
2016-11-29T09:24:56.522Z,295
2016-11-29T09:25:56.696Z,295
2016-11-29T09:26:56.920Z,295
2016-11-29T09:27:57.225Z,295
2016-11-29T09:28:57.455Z,295
2016-11-29T09:29:57.644Z,295
2016-11-29T09:30:57.823Z,295
2016-11-29T09:31:58.078Z,295
2016-11-29T09:32:58.297Z,295
2016-11-29T09:33:58.489Z,295
2016-11-29T09:34:59.217Z,295
2016-11-29T09:36:00.635Z,295
2016-11-29T09:37:00.364Z,295
2016-11-29T09:38:00.556Z,295
2016-11-29T09:39:00.804Z,296
2016-11-29T09:40:01.929Z,295
2016-11-29T09:41:01.531Z,295
2016-11-29T09:42:01.800Z,296
2016-11-29T09:43:01.974Z,295
2016-11-29T09:44:02.185Z,295
2016-11-29T09:45:02.366Z,295
2016-11-29T09:46:02.421Z,295
2016-11-29T09:47:02.655Z,295
2016-11-29T09:48:03.001Z,295
2016-11-29T09:49:03.115Z,295
2016-11-29T09:50:03.357Z,295
2016-11-29T09:51:03.616Z,295
2016-11-29T09:52:03.770Z,295
2016-11-29T09:53:04.061Z,295
2016-11-29T09:54:04.119Z,295
2016-11-29T09:55:04.274Z,295
2016-11-29T09:56:04.438Z,295
2016-11-29T09:57:04.598Z,295
2016-11-29T09:58:04.706Z,295
2016-11-29T09:59:04.877Z,296
2016-11-29T10:00:05.012Z,295
2016-11-29T10:01:12.078Z,295
2016-11-29T10:02:12.296Z,295
2016-11-29T10:03:12.541Z,295
2016-11-29T10:04:12.766Z,296
2016-11-29T10:05:13.112Z,295
2016-11-29T10:06:13.390Z,295
2016-11-29T10:07:13.582Z,296
2016-11-29T10:08:13.740Z,295
2016-11-29T10:09:13.868Z,295
2016-11-29T10:10:14.118Z,295
2016-11-29T10:11:14.285Z,295
2016-11-29T10:12:14.955Z,295
2016-11-29T10:13:14.870Z,295
2016-11-29T10:14:15.156Z,294
2016-11-29T10:15:15.937Z,295
2016-11-29T10:16:16.285Z,295
2016-11-29T10:17:16.796Z,295
2016-11-29T10:18:17.052Z,295
2016-11-29T10:19:17.169Z,295
2016-11-29T10:20:17.426Z,295
2016-11-29T10:21:17.597Z,295
2016-11-29T10:22:17.849Z,295
2016-11-29T10:23:18.044Z,295
2016-11-29T10:24:18.335Z,295
2016-11-29T10:25:18.622Z,295
2016-11-29T10:26:18.819Z,295
2016-11-29T10:27:18.923Z,295
2016-11-29T10:28:19.030Z,295
2016-11-29T10:29:19.276Z,294
2016-11-29T10:30:19.599Z,294
2016-11-29T10:31:19.720Z,294
2016-11-29T10:32:19.966Z,295
2016-11-29T10:33:20.212Z,295
2016-11-29T10:34:20.371Z,295
2016-11-29T10:35:20.801Z,294
2016-11-29T10:36:20.830Z,295
2016-11-29T10:37:21.056Z,295
2016-11-29T10:38:21.181Z,295
2016-11-29T10:39:21.470Z,295
2016-11-29T10:40:21.734Z,295
2016-11-29T10:41:21.819Z,295
2016-11-29T10:42:22.025Z,295
2016-11-29T10:43:22.207Z,295
2016-11-29T10:44:22.396Z,295
2016-11-29T10:45:22.603Z,296
2016-11-29T10:46:23.086Z,295
2016-11-29T10:47:23.164Z,295
2016-11-29T10:48:23.512Z,295
2016-11-29T10:49:23.608Z,295
2016-11-29T10:50:23.783Z,295
2016-11-29T10:51:23.915Z,295
2016-11-29T10:52:24.281Z,295
2016-11-29T10:53:24.623Z,295
2016-11-29T10:54:24.774Z,295
2016-11-29T10:55:24.819Z,295
2016-11-29T10:56:25.014Z,295
2016-11-29T10:57:25.186Z,296
2016-11-29T10:58:25.433Z,295
2016-11-29T10:59:25.665Z,295
2016-11-29T11:00:26.024Z,295
2016-11-29T11:01:26.217Z,295
2016-11-29T11:02:26.353Z,295
2016-11-29T11:03:26.612Z,295
2016-11-29T11:04:26.745Z,295
2016-11-29T11:05:26.869Z,295
2016-11-29T11:06:27.084Z,295
2016-11-29T11:07:27.211Z,295
2016-11-29T11:08:27.423Z,295
2016-11-29T11:09:27.656Z,295
2016-11-29T11:10:27.682Z,295
2016-11-29T11:11:27.904Z,294
2016-11-29T11:12:28.228Z,295
2016-11-29T11:13:28.718Z,295
2016-11-29T11:14:28.736Z,295
2016-11-29T11:15:29.092Z,295
2016-11-29T11:16:29.263Z,296
2016-11-29T11:17:29.621Z,295
2016-11-29T11:18:30.002Z,295
2016-11-29T11:19:30.140Z,294
2016-11-29T11:20:30.640Z,295
2016-11-29T11:21:30.957Z,295
2016-11-29T11:22:31.175Z,295
2016-11-29T11:23:31.464Z,295
2016-11-29T11:24:31.586Z,295
2016-11-29T11:25:31.869Z,295
2016-11-29T11:26:31.949Z,295
2016-11-29T11:27:32.176Z,295
2016-11-29T11:28:32.446Z,295
2016-11-29T11:29:32.759Z,295
2016-11-29T11:30:32.953Z,295
2016-11-29T11:31:33.182Z,295
2016-11-29T11:32:33.289Z,295
2016-11-29T11:33:33.459Z,295
2016-11-29T11:34:33.623Z,295
2016-11-29T11:35:34.006Z,295
2016-11-29T11:36:34.167Z,295
2016-11-29T11:37:34.298Z,295
2016-11-29T11:38:34.393Z,295
2016-11-29T11:39:34.541Z,295
2016-11-29T11:40:34.711Z,294
2016-11-29T11:41:35.022Z,295
2016-11-29T11:42:35.255Z,295
2016-11-29T11:43:35.473Z,295
2016-11-29T11:44:35.636Z,295
2016-11-29T11:45:35.897Z,295
2016-11-29T11:46:36.157Z,295
2016-11-29T11:47:36.285Z,295
2016-11-29T11:48:36.498Z,295
2016-11-29T11:49:36.723Z,295
2016-11-29T11:50:36.873Z,295
2016-11-29T11:51:37.155Z,295
2016-11-29T11:52:37.359Z,295
2016-11-29T11:53:37.545Z,294
2016-11-29T11:54:37.680Z,295
2016-11-29T11:55:37.925Z,295
2016-11-29T11:56:38.263Z,295
2016-11-29T11:57:38.414Z,294
2016-11-29T11:58:39.696Z,295
2016-11-29T11:59:39.361Z,295
2016-11-29T12:00:39.471Z,295
2016-11-29T12:01:39.605Z,295
2016-11-29T12:02:39.793Z,295
2016-11-29T12:03:39.957Z,295
2016-11-29T12:04:40.218Z,294
2016-11-29T12:05:40.581Z,295
2016-11-29T12:06:40.721Z,294
2016-11-29T12:07:40.884Z,295
2016-11-29T12:08:41.194Z,295
2016-11-29T12:09:41.438Z,295
2016-11-29T12:10:41.826Z,295
2016-11-29T12:11:42.188Z,295
2016-11-29T12:12:42.430Z,295
2016-11-29T12:13:42.780Z,295
2016-11-29T12:14:42.959Z,295
2016-11-29T12:15:43.238Z,295
2016-11-29T12:16:43.559Z,295
2016-11-29T12:17:43.814Z,294
2016-11-29T12:18:44.061Z,294
2016-11-29T12:19:44.807Z,295
2016-11-29T12:20:44.709Z,295
2016-11-29T12:21:44.816Z,295
2016-11-29T12:22:45.080Z,295
2016-11-29T12:23:46.211Z,295
2016-11-29T12:24:46.468Z,294
2016-11-29T12:25:46.880Z,294
2016-11-29T12:26:46.960Z,295
2016-11-29T12:27:47.167Z,294
2016-11-29T12:28:47.362Z,294
2016-11-29T12:29:47.498Z,295
2016-11-29T12:30:47.691Z,294
2016-11-29T12:31:47.958Z,295
2016-11-29T12:32:48.093Z,294
2016-11-29T12:33:48.339Z,295
2016-11-29T12:34:48.543Z,295
2016-11-29T12:35:48.747Z,295
2016-11-29T12:36:48.992Z,295
2016-11-29T12:37:49.158Z,295
2016-11-29T12:38:49.407Z,295
2016-11-29T12:39:49.616Z,295
2016-11-29T12:40:49.769Z,294
2016-11-29T12:41:50.041Z,295
2016-11-29T12:42:50.168Z,295
2016-11-29T12:43:50.411Z,295
2016-11-29T12:44:50.532Z,295
2016-11-29T12:45:50.667Z,295
2016-11-29T12:46:50.972Z,295
2016-11-29T12:47:51.340Z,295
2016-11-29T12:48:51.481Z,294
2016-11-29T12:49:51.689Z,295
2016-11-29T12:50:51.980Z,294
2016-11-29T12:51:52.404Z,295
2016-11-29T12:52:52.676Z,294
2016-11-29T12:53:52.935Z,295
2016-11-29T12:54:53.101Z,295
2016-11-29T12:55:53.322Z,295
2016-11-29T12:56:53.486Z,295
2016-11-29T12:57:53.925Z,294
2016-11-29T12:58:54.350Z,294
2016-11-29T12:59:54.521Z,295
2016-11-29T13:00:54.747Z,295
2016-11-29T13:01:55.001Z,295
2016-11-29T13:02:55.531Z,295
2016-11-29T13:03:55.660Z,294
2016-11-29T13:04:56.088Z,295
2016-11-29T13:05:56.235Z,295
2016-11-29T13:06:56.541Z,295
2016-11-29T13:07:56.601Z,295
2016-11-29T13:08:56.731Z,295
2016-11-29T13:09:56.939Z,295
2016-11-29T13:10:57.184Z,294
2016-11-29T13:11:57.338Z,295
2016-11-29T13:12:57.652Z,295
2016-11-29T13:13:57.919Z,295
2016-11-29T13:14:58.027Z,294
2016-11-29T13:15:58.181Z,294
2016-11-29T13:16:58.359Z,295
2016-11-29T13:17:58.558Z,296
2016-11-29T13:18:58.814Z,295
2016-11-29T13:19:58.953Z,295
2016-11-29T13:20:59.051Z,295
2016-11-29T13:21:59.265Z,295
2016-11-29T13:22:59.443Z,295
2016-11-29T13:23:59.629Z,295
2016-11-29T13:24:59.730Z,294
2016-11-29T13:26:00.003Z,295
2016-11-29T13:27:00.283Z,294
2016-11-29T13:28:00.545Z,294
2016-11-29T13:29:00.672Z,294
2016-11-29T13:30:00.822Z,294
2016-11-29T13:31:01.029Z,295
2016-11-29T13:32:01.286Z,294
2016-11-29T13:33:01.412Z,295
2016-11-29T13:34:01.591Z,295
2016-11-29T13:35:01.708Z,295
2016-11-29T13:36:01.945Z,295
2016-11-29T13:37:02.431Z,294
2016-11-29T13:38:02.689Z,295
2016-11-29T13:39:02.940Z,295
2016-11-29T13:40:03.127Z,295
2016-11-29T13:41:03.288Z,295
2016-11-29T13:42:03.449Z,295
2016-11-29T13:43:03.660Z,295
2016-11-29T13:44:03.856Z,295
2016-11-29T13:45:04.216Z,295
2016-11-29T13:46:04.158Z,295
2016-11-29T13:47:04.295Z,295
2016-11-29T13:48:04.483Z,295
2016-11-29T13:49:04.684Z,295